createdAt,value
2022-08-25T00:00:13.682Z,99.90
2022-08-25T00:02:43.830Z,99.90
2022-08-25T00:05:27.694Z,99.90
2022-08-25T00:07:57.243Z,99.90
2022-08-25T00:10:24.715Z,99.90
2022-08-25T00:12:52.089Z,99.90
2022-08-25T00:15:19.671Z,99.90
2022-08-25T00:17:47.013Z,99.90
2022-08-25T00:20:14.882Z,99.90
2022-08-25T00:22:42.385Z,99.90
2022-08-25T00:25:10.143Z,99.90
2022-08-25T00:27:37.486Z,99.90
2022-08-25T00:30:06.191Z,99.90
2022-08-25T00:32:33.685Z,99.90
2022-08-25T00:35:01.016Z,99.90
2022-08-25T00:37:28.482Z,99.90
2022-08-25T00:39:57.441Z,99.90
2022-08-25T00:42:26.247Z,99.90
2022-08-25T00:44:53.965Z,99.90
2022-08-25T00:47:21.490Z,99.90
2022-08-25T00:49:55.012Z,99.90
2022-08-25T00:52:29.824Z,99.90
2022-08-25T00:55:08.282Z,99.90
2022-08-25T00:58:14.364Z,99.90
2022-08-25T01:00:53.170Z,99.90
2022-08-25T01:03:21.539Z,99.90
2022-08-25T01:05:54.129Z,99.90
2022-08-25T01:08:29.096Z,99.90
2022-08-25T01:10:58.621Z,99.90
2022-08-25T01:13:40.226Z,99.90
2022-08-25T01:16:08.402Z,99.90
2022-08-25T01:18:56.773Z,99.90
2022-08-25T01:21:25.783Z,99.90
2022-08-25T01:23:55.703Z,99.90
2022-08-25T01:26:30.896Z,99.90
2022-08-25T01:29:19.822Z,99.90
2022-08-25T01:31:51.343Z,99.90
2022-08-25T01:34:19.881Z,99.90
2022-08-25T01:36:47.547Z,99.90
2022-08-25T01:39:16.246Z,99.90
2022-08-25T01:41:58.842Z,99.90
2022-08-25T01:44:26.614Z,99.90
2022-08-25T01:46:54.939Z,99.90
2022-08-25T01:49:22.429Z,99.90
2022-08-25T01:52:21.441Z,99.90
2022-08-25T01:54:49.308Z,99.90
2022-08-25T01:57:16.890Z,99.90
2022-08-25T01:59:45.189Z,99.90
2022-08-25T02:02:12.999Z,99.90
2022-08-25T02:04:40.803Z,99.90
2022-08-25T02:07:12.214Z,99.90
2022-08-25T02:09:39.833Z,99.90
2022-08-25T02:12:09.471Z,99.90
2022-08-25T02:14:37.255Z,99.90
2022-08-25T02:17:05.686Z,99.90
2022-08-25T02:19:33.572Z,99.90
2022-08-25T02:22:01.522Z,99.90
2022-08-25T02:24:29.232Z,99.90
2022-08-25T02:26:57.089Z,99.90
2022-08-25T02:29:25.092Z,99.90
2022-08-25T02:31:52.609Z,99.90
2022-08-25T02:34:19.901Z,99.90
2022-08-25T02:36:47.428Z,99.90
2022-08-25T02:39:14.828Z,99.90
2022-08-25T02:41:42.914Z,99.90
2022-08-25T02:44:11.032Z,99.90
2022-08-25T02:46:39.046Z,99.90
2022-08-25T02:49:07.957Z,99.90
2022-08-25T02:51:36.098Z,99.90
2022-08-25T02:54:05.650Z,99.90
2022-08-25T02:56:33.956Z,99.90
2022-08-25T02:59:02.045Z,99.90
2022-08-25T03:01:30.685Z,99.90
2022-08-25T03:03:58.938Z,99.90
2022-08-25T03:06:28.096Z,99.90
2022-08-25T03:08:55.828Z,99.90
2022-08-25T03:11:24.156Z,99.90
2022-08-25T03:13:51.528Z,99.90
2022-08-25T03:16:20.614Z,99.90
2022-08-25T03:18:48.631Z,99.90
2022-08-25T03:21:16.648Z,99.90
2022-08-25T03:23:45.853Z,99.90
2022-08-25T03:26:31.730Z,99.90
2022-08-25T03:29:00.662Z,99.90
2022-08-25T03:31:33.000Z,99.90
2022-08-25T03:34:01.662Z,99.90
2022-08-25T03:36:29.925Z,99.90
2022-08-25T03:38:58.010Z,99.90
2022-08-25T03:41:31.077Z,99.90
2022-08-25T03:43:59.754Z,99.90
2022-08-25T03:46:30.449Z,99.90
2022-08-25T03:48:58.587Z,99.90
2022-08-25T03:51:32.235Z,99.90
2022-08-25T03:54:00.990Z,99.90
2022-08-25T03:56:29.016Z,99.90
2022-08-25T03:58:57.095Z,99.90
2022-08-25T04:01:25.639Z,99.90
2022-08-25T04:03:53.129Z,99.90
2022-08-25T04:06:21.287Z,99.90
2022-08-25T04:08:48.755Z,99.90
2022-08-25T04:11:21.389Z,99.90
2022-08-25T04:13:49.371Z,99.90
2022-08-25T04:16:23.122Z,99.90
2022-08-25T04:18:52.417Z,99.90
2022-08-25T04:21:20.508Z,99.90
2022-08-25T04:23:49.310Z,99.90
2022-08-25T04:26:25.148Z,99.90
2022-08-25T04:28:52.891Z,99.90
2022-08-25T04:31:22.346Z,99.90
2022-08-25T04:33:50.263Z,99.90
2022-08-25T04:36:28.746Z,99.90
2022-08-25T04:39:09.677Z,99.90
2022-08-25T04:41:44.029Z,99.90
2022-08-25T04:44:11.491Z,99.90
2022-08-25T04:46:39.390Z,99.90
2022-08-25T04:49:07.090Z,99.90
2022-08-25T04:51:41.193Z,99.90
2022-08-25T04:54:13.044Z,99.90
2022-08-25T04:56:41.781Z,99.90
2022-08-25T04:59:12.237Z,99.90
2022-08-25T05:01:46.328Z,99.90
2022-08-25T05:04:28.350Z,99.90
2022-08-25T05:06:57.633Z,99.90
2022-08-25T05:09:25.950Z,99.90
2022-08-25T05:11:53.997Z,99.90
2022-08-25T05:14:25.633Z,99.90
2022-08-25T05:16:58.904Z,99.90
2022-08-25T05:19:27.705Z,99.90
2022-08-25T05:21:55.192Z,99.90
2022-08-25T05:24:26.853Z,99.90
2022-08-25T05:26:54.085Z,99.90
2022-08-25T05:29:21.775Z,99.90
2022-08-25T05:31:50.763Z,99.90
2022-08-25T05:34:19.631Z,99.90
2022-08-25T05:36:48.000Z,99.90
2022-08-25T05:39:15.605Z,99.90
2022-08-25T05:41:43.084Z,99.90
2022-08-25T05:44:10.679Z,99.90
2022-08-25T05:46:38.207Z,99.90
2022-08-25T05:49:05.672Z,99.90
2022-08-25T05:51:33.572Z,99.90
2022-08-25T05:54:00.862Z,99.90
2022-08-25T05:56:28.061Z,99.90
2022-08-25T05:58:55.970Z,99.90
2022-08-25T06:01:45.456Z,99.90
2022-08-25T06:04:16.019Z,99.90
2022-08-25T06:06:43.958Z,99.90
2022-08-25T06:09:11.419Z,99.90
2022-08-25T06:11:40.289Z,99.90
2022-08-25T06:14:09.120Z,99.90
2022-08-25T06:16:36.905Z,99.90
2022-08-25T06:19:05.063Z,99.90
2022-08-25T06:21:32.702Z,99.90
2022-08-25T06:24:00.141Z,99.90
2022-08-25T06:26:27.473Z,99.90
2022-08-25T06:28:55.101Z,99.90
2022-08-25T06:31:23.049Z,99.90
2022-08-25T06:33:51.965Z,99.90
2022-08-25T06:36:19.497Z,99.90
2022-08-25T06:38:48.141Z,99.90
2022-08-25T06:41:16.881Z,99.90
2022-08-25T06:43:48.934Z,99.90
2022-08-25T06:46:21.623Z,99.90
2022-08-25T06:52:12.276Z,99.90
2022-08-25T06:54:40.309Z,99.90
2022-08-25T06:57:08.704Z,99.90
2022-08-25T06:59:37.155Z,99.90
2022-08-25T07:02:08.866Z,99.90
2022-08-25T07:04:36.753Z,99.90
2022-08-25T07:07:04.597Z,99.90
2022-08-25T07:09:35.229Z,99.90
2022-08-25T07:12:05.872Z,99.90
2022-08-25T07:14:33.197Z,99.90
2022-08-25T07:17:01.922Z,99.90
2022-08-25T07:19:30.205Z,98.90
2022-08-25T07:21:57.744Z,96.40
2022-08-25T07:24:25.246Z,94.40
2022-08-25T07:26:53.033Z,94.50
2022-08-25T07:29:32.859Z,94.10
2022-08-25T07:32:04.250Z,95.70
2022-08-25T07:34:52.827Z,95.20
2022-08-25T07:40:14.937Z,92.00
2022-08-25T07:42:43.063Z,91.70
2022-08-25T07:45:11.992Z,93.00
2022-08-25T07:47:40.041Z,92.70
2022-08-25T07:50:09.316Z,90.10
2022-08-25T07:52:36.943Z,90.50
2022-08-25T07:55:11.168Z,91.10
2022-08-25T07:57:41.147Z,86.30
2022-08-25T08:00:14.643Z,87.50
2022-08-25T08:02:42.749Z,89.00
2022-08-25T08:05:12.065Z,85.40
2022-08-25T08:07:43.334Z,84.80
2022-08-25T08:10:48.035Z,83.60
2022-08-25T08:13:02.990Z,83.00
2022-08-25T08:15:30.840Z,82.30
2022-08-25T08:17:59.883Z,80.10
2022-08-25T08:20:29.136Z,79.60
2022-08-25T08:22:56.438Z,81.80
2022-08-25T08:25:27.088Z,79.50
2022-08-25T08:27:56.032Z,86.60
2022-08-25T08:30:26.072Z,88.00
2022-08-25T08:33:12.033Z,91.40
2022-08-25T08:35:41.505Z,92.60
2022-08-25T08:38:17.204Z,94.10
2022-08-25T08:41:33.871Z,92.70
2022-08-25T08:44:24.056Z,91.40
2022-08-25T08:47:15.741Z,87.20
2022-08-25T08:49:59.069Z,89.80
2022-08-25T08:52:49.752Z,88.50
2022-08-25T08:55:39.433Z,89.50
2022-08-25T08:58:17.399Z,91.70
2022-08-25T09:00:52.669Z,91.10
2022-08-25T09:03:36.689Z,91.30
2022-08-25T09:06:22.742Z,90.40
2022-08-25T09:08:50.478Z,92.60
2022-08-25T09:11:42.365Z,94.10
2022-08-25T09:14:33.365Z,93.10
2022-08-25T09:17:09.081Z,94.70
2022-08-25T09:19:50.778Z,97.20
2022-08-25T09:23:01.285Z,95.60
2022-08-25T09:25:59.416Z,97.70
2022-08-25T09:28:33.661Z,96.30
2022-08-25T09:31:05.627Z,97.30
2022-08-25T09:33:35.859Z,96.30
2022-08-25T09:36:06.138Z,97.90
2022-08-25T09:38:36.183Z,98.30
2022-08-25T09:41:03.903Z,99.60
2022-08-25T09:43:35.959Z,98.40
2022-08-25T09:46:11.253Z,98.80
2022-08-25T09:48:56.943Z,99.40
2022-08-25T09:51:38.197Z,98.70
2022-08-25T09:54:13.336Z,98.80
2022-08-25T09:56:54.410Z,99.30
2022-08-25T09:59:34.337Z,97.80
2022-08-25T10:02:15.045Z,98.60
2022-08-25T10:04:43.169Z,97.30
2022-08-25T10:07:34.972Z,97.70
2022-08-25T10:10:18.617Z,99.50
2022-08-25T10:12:51.551Z,98.00
2022-08-25T10:15:35.623Z,98.30
2022-08-25T10:18:26.846Z,98.80
2022-08-25T10:21:21.000Z,99.90
2022-08-25T10:23:55.969Z,99.90
2022-08-25T10:26:35.231Z,98.60
2022-08-25T10:29:18.032Z,99.60
2022-08-25T10:31:52.269Z,99.90
2022-08-25T10:34:32.477Z,99.30
2022-08-25T10:37:32.965Z,99.00
2022-08-25T10:40:11.075Z,98.70
2022-08-25T10:42:42.681Z,98.40
2022-08-25T10:45:37.157Z,98.20
2022-08-25T10:48:22.754Z,99.40
2022-08-25T10:51:07.883Z,99.90
2022-08-25T10:53:57.710Z,99.30
2022-08-25T10:57:01.978Z,99.20
2022-08-25T10:59:55.905Z,99.60
2022-08-25T11:02:35.380Z,99.90
2022-08-25T11:05:07.133Z,99.90
2022-08-25T11:07:38.978Z,99.90
2022-08-25T11:10:17.080Z,99.90
2022-08-25T11:12:49.836Z,99.90
2022-08-25T11:15:25.862Z,99.90
2022-08-25T11:18:02.062Z,99.90
2022-08-25T11:20:37.985Z,99.90
2022-08-25T11:23:21.892Z,99.90
2022-08-25T11:26:01.874Z,99.90
2022-08-25T11:28:53.120Z,99.90
2022-08-25T11:31:23.019Z,99.90
2022-08-25T11:33:51.744Z,99.90
2022-08-25T11:36:29.530Z,99.90
2022-08-25T11:38:59.782Z,99.90
2022-08-25T11:41:56.666Z,99.90
2022-08-25T11:44:27.156Z,99.90
2022-08-25T11:47:00.839Z,99.90
2022-08-25T11:49:47.129Z,99.90
2022-08-25T11:52:34.697Z,99.90
2022-08-25T11:55:22.988Z,99.90
2022-08-25T11:58:13.034Z,99.90
2022-08-25T12:00:44.448Z,99.90
2022-08-25T12:03:36.700Z,99.90
2022-08-25T12:06:28.195Z,99.90
2022-08-25T12:09:01.674Z,99.90
2022-08-25T12:11:44.239Z,99.90
2022-08-25T12:14:19.510Z,99.90
2022-08-25T12:16:56.162Z,99.90
2022-08-25T12:19:36.002Z,99.90
2022-08-25T12:22:04.035Z,99.90
2022-08-25T12:24:47.654Z,99.50
2022-08-25T12:27:26.911Z,98.90
2022-08-25T12:30:18.697Z,99.90
2022-08-25T12:33:09.989Z,99.70
2022-08-25T12:36:00.582Z,99.90
2022-08-25T12:38:43.655Z,99.90
2022-08-25T12:41:18.720Z,99.70
2022-08-25T12:43:48.780Z,99.90
2022-08-25T12:46:27.050Z,99.90
2022-08-25T12:48:57.832Z,99.90
2022-08-25T12:51:40.064Z,99.90
2022-08-25T12:54:47.705Z,99.90
2022-08-25T12:57:41.983Z,99.90
2022-08-25T13:00:18.432Z,99.90
2022-08-25T13:03:15.951Z,99.90
2022-08-25T13:05:43.492Z,99.90
2022-08-25T13:08:15.376Z,99.90
2022-08-25T13:11:12.801Z,99.90
2022-08-25T13:14:15.359Z,99.90
2022-08-25T13:16:56.396Z,99.90
2022-08-25T13:19:25.804Z,99.90
2022-08-25T13:21:54.618Z,99.90
2022-08-25T13:24:26.491Z,99.90
2022-08-25T13:27:01.228Z,99.90
2022-08-25T13:29:36.853Z,99.90
2022-08-25T13:32:09.768Z,99.90
2022-08-25T13:34:43.096Z,99.90
2022-08-25T13:37:31.470Z,99.90
2022-08-25T13:40:24.728Z,99.90
2022-08-25T13:43:06.471Z,99.90
2022-08-25T13:45:41.474Z,99.90
2022-08-25T13:48:20.976Z,99.90
2022-08-25T13:50:52.923Z,99.90
2022-08-25T13:53:26.366Z,99.90
2022-08-25T13:55:58.543Z,99.90
2022-08-25T13:58:39.059Z,99.90
2022-08-25T14:01:43.880Z,99.90
2022-08-25T14:04:50.793Z,99.90
2022-08-25T14:07:23.507Z,99.90
2022-08-25T14:09:53.888Z,99.90
2022-08-25T14:12:40.167Z,99.90
2022-08-25T14:15:22.866Z,99.90
2022-08-25T14:18:19.562Z,99.90
2022-08-25T14:20:50.819Z,99.90
2022-08-25T14:23:25.845Z,99.90
2022-08-25T14:25:57.030Z,99.90
2022-08-25T14:28:27.630Z,99.90
2022-08-25T14:31:30.204Z,99.90
2022-08-25T14:34:02.798Z,99.90
2022-08-25T14:36:31.659Z,99.90
2022-08-25T14:39:00.720Z,99.90
2022-08-25T14:41:29.830Z,99.90
2022-08-25T14:43:57.378Z,99.90
2022-08-25T14:46:28.096Z,99.90
2022-08-25T14:49:01.168Z,99.90
2022-08-25T14:51:32.742Z,99.90
2022-08-25T14:54:03.239Z,99.90
2022-08-25T14:56:32.005Z,99.90
2022-08-25T14:59:00.267Z,99.90
2022-08-25T15:01:30.054Z,99.90
2022-08-25T15:04:12.998Z,99.90
2022-08-25T15:06:43.884Z,99.90
2022-08-25T15:09:16.732Z,99.90
2022-08-25T15:11:50.701Z,99.90
2022-08-25T15:14:29.176Z,99.90
2022-08-25T15:17:02.422Z,99.90
2022-08-25T15:19:30.194Z,99.90
2022-08-25T15:21:58.272Z,99.90
2022-08-25T15:24:27.892Z,99.90
2022-08-25T15:27:01.125Z,99.90
2022-08-25T15:29:31.153Z,99.90
2022-08-25T15:32:00.631Z,99.90
2022-08-25T15:34:32.314Z,99.90
2022-08-25T15:37:06.366Z,99.90
2022-08-25T15:39:33.734Z,99.90
2022-08-25T15:42:01.157Z,99.90
2022-08-25T15:44:29.885Z,99.90
2022-08-25T15:46:59.368Z,99.90
2022-08-25T15:49:29.697Z,99.90
2022-08-25T15:52:00.757Z,99.90
2022-08-25T15:54:28.945Z,99.90
2022-08-25T15:56:58.326Z,99.90
2022-08-25T15:59:29.016Z,99.90
2022-08-25T16:01:57.288Z,99.90
2022-08-25T16:04:28.217Z,99.90
2022-08-25T16:06:56.544Z,99.90
2022-08-25T16:09:26.168Z,99.90
2022-08-25T16:11:56.662Z,99.90
2022-08-25T16:14:25.936Z,99.90
2022-08-25T16:16:58.504Z,99.90
2022-08-25T16:19:30.216Z,99.90
2022-08-25T16:21:58.860Z,99.90
2022-08-25T16:24:27.622Z,99.90
2022-08-25T16:27:10.919Z,99.90
2022-08-25T16:29:41.531Z,99.90
2022-08-25T16:32:11.658Z,99.90
2022-08-25T16:34:42.178Z,99.90
2022-08-25T16:37:09.791Z,99.90
2022-08-25T16:39:40.024Z,99.90
2022-08-25T16:42:08.841Z,99.90
2022-08-25T16:44:37.955Z,99.90
2022-08-25T16:47:08.971Z,99.90
2022-08-25T16:49:36.845Z,99.90
2022-08-25T16:52:28.608Z,99.90
2022-08-25T16:55:13.209Z,99.90
2022-08-25T16:57:43.294Z,99.90
2022-08-25T17:00:14.205Z,99.90
2022-08-25T17:02:42.589Z,99.90
2022-08-25T17:05:11.570Z,99.90
2022-08-25T17:07:39.066Z,99.90
2022-08-25T17:10:07.586Z,99.90
2022-08-25T17:12:40.475Z,99.90
2022-08-25T17:15:08.469Z,99.90
2022-08-25T17:17:37.232Z,99.90
2022-08-25T17:20:05.108Z,99.90
2022-08-25T17:22:32.514Z,99.90
2022-08-25T17:25:01.153Z,99.90
2022-08-25T17:27:29.545Z,99.90
2022-08-25T17:29:58.425Z,99.90
2022-08-25T17:32:30.196Z,99.90
2022-08-25T17:35:00.190Z,99.90
2022-08-25T17:37:27.546Z,99.90
2022-08-25T17:40:02.623Z,99.90
2022-08-25T17:42:32.060Z,99.90
2022-08-25T17:45:00.063Z,99.90
2022-08-25T17:47:46.974Z,99.90
2022-08-25T17:50:15.760Z,99.90
2022-08-25T17:52:45.140Z,99.90
2022-08-25T17:55:12.567Z,99.90
2022-08-25T17:57:44.093Z,99.90
2022-08-25T18:00:16.895Z,99.90
2022-08-25T18:03:25.913Z,99.90
2022-08-25T18:10:05.137Z,99.90
2022-08-25T18:12:32.786Z,99.90
2022-08-25T18:15:00.795Z,99.90
2022-08-25T18:17:28.516Z,99.90
2022-08-25T18:19:59.283Z,99.90
2022-08-25T18:27:29.889Z,99.90
2022-08-25T18:29:58.094Z,99.90
2022-08-25T18:32:26.250Z,99.90
2022-08-25T18:34:54.885Z,99.90
2022-08-25T18:37:41.947Z,99.90
2022-08-25T18:40:25.847Z,99.90
2022-08-25T18:42:56.157Z,99.90
2022-08-25T18:45:28.433Z,99.90
2022-08-25T18:48:07.215Z,99.90
2022-08-25T18:50:39.005Z,99.90
2022-08-25T18:53:07.212Z,99.90
2022-08-25T18:55:35.754Z,99.90
2022-08-25T18:58:06.141Z,99.90
2022-08-25T19:00:34.894Z,99.90
2022-08-25T19:03:02.307Z,99.90
2022-08-25T19:10:00.528Z,99.90
2022-08-25T19:12:28.417Z,99.90
2022-08-25T19:14:57.932Z,99.90
2022-08-25T19:22:03.720Z,99.90
2022-08-25T19:24:31.701Z,99.90
2022-08-25T19:27:40.319Z,99.90
2022-08-25T19:30:10.297Z,99.90
2022-08-25T19:32:43.344Z,99.90
2022-08-25T19:35:31.866Z,99.90
2022-08-25T19:38:00.533Z,99.90
2022-08-25T19:41:14.615Z,99.90
2022-08-25T19:43:56.609Z,99.90
2022-08-25T19:46:54.395Z,99.90
2022-08-25T19:49:36.821Z,99.90
2022-08-25T19:52:13.020Z,99.90
2022-08-25T19:54:58.186Z,99.90
2022-08-25T19:57:49.147Z,99.90
2022-08-25T20:00:30.793Z,99.90
2022-08-25T20:03:41.031Z,99.90
2022-08-25T20:06:22.581Z,99.90
2022-08-25T20:08:59.003Z,99.90
2022-08-25T20:11:29.402Z,99.90
2022-08-25T20:14:03.006Z,99.90
2022-08-25T20:16:31.057Z,99.90
2022-08-25T20:18:58.741Z,99.90
2022-08-25T20:21:26.477Z,99.90
2022-08-25T20:24:12.116Z,99.90
2022-08-25T20:26:42.952Z,99.90
2022-08-25T20:29:11.144Z,99.90
2022-08-25T20:31:39.781Z,99.90
2022-08-25T20:34:20.271Z,99.90
2022-08-25T20:37:06.815Z,99.90
2022-08-25T20:40:41.147Z,99.90
2022-08-25T20:43:13.870Z,99.90
2022-08-25T20:45:41.185Z,99.90
2022-08-25T20:48:10.111Z,99.90
2022-08-25T20:50:39.154Z,99.90
2022-08-25T20:53:10.181Z,99.90
2022-08-25T20:55:43.678Z,99.90
2022-08-25T20:58:14.120Z,99.90
2022-08-25T21:00:46.302Z,99.90
2022-08-25T21:03:13.514Z,99.90
2022-08-25T21:05:42.198Z,99.90
2022-08-25T21:08:10.464Z,99.90
2022-08-25T21:10:38.089Z,99.90
2022-08-25T21:13:06.576Z,99.90
2022-08-25T21:15:33.709Z,99.90
2022-08-25T21:18:03.003Z,99.90
2022-08-25T21:20:30.498Z,99.90
2022-08-25T21:22:57.718Z,99.90
2022-08-25T21:25:24.986Z,99.90
2022-08-25T21:27:52.200Z,99.90
2022-08-25T21:30:20.146Z,99.90
2022-08-25T21:32:53.298Z,99.90
2022-08-25T21:35:24.783Z,99.90
2022-08-25T21:37:53.492Z,99.90
2022-08-25T21:40:22.033Z,99.90
2022-08-25T21:42:49.485Z,99.90
2022-08-25T21:45:17.259Z,99.90
2022-08-25T21:47:48.747Z,99.90
2022-08-25T21:50:16.033Z,99.90
2022-08-25T21:52:43.394Z,99.90
2022-08-25T21:55:16.111Z,99.90
2022-08-25T21:57:43.946Z,99.90
2022-08-25T22:00:13.399Z,99.90
2022-08-25T22:02:40.717Z,99.90
2022-08-25T22:05:19.424Z,99.90
2022-08-25T22:07:47.486Z,99.90
2022-08-25T22:10:17.975Z,99.90
2022-08-25T22:12:47.050Z,99.90
2022-08-25T22:15:15.968Z,99.90
2022-08-25T22:17:43.312Z,99.90
2022-08-25T22:20:11.829Z,99.90
2022-08-25T22:22:39.008Z,99.90
2022-08-25T22:25:06.563Z,99.90
2022-08-25T22:27:35.503Z,99.90
2022-08-25T22:30:06.092Z,99.90
2022-08-25T22:32:33.543Z,99.90
2022-08-25T22:35:01.623Z,99.90
2022-08-25T22:37:30.365Z,99.90
2022-08-25T22:39:58.133Z,99.90
2022-08-25T22:42:25.790Z,99.90
2022-08-25T22:44:54.163Z,99.90
2022-08-25T22:47:21.623Z,99.90
2022-08-25T22:49:49.142Z,99.90
2022-08-25T22:52:16.322Z,99.90
2022-08-25T22:54:44.242Z,99.90
2022-08-25T22:57:12.167Z,99.90
2022-08-25T22:59:39.688Z,99.90
2022-08-25T23:02:07.668Z,99.90
2022-08-25T23:04:37.189Z,99.90
2022-08-25T23:07:09.115Z,99.90
2022-08-25T23:09:37.331Z,99.90
2022-08-25T23:12:05.204Z,99.90
2022-08-25T23:14:38.111Z,99.90
2022-08-25T23:17:09.655Z,99.90
2022-08-25T23:19:36.911Z,99.90
2022-08-25T23:22:10.993Z,99.90
2022-08-25T23:24:43.085Z,99.90
2022-08-25T23:27:13.540Z,99.90
2022-08-25T23:29:43.882Z,99.90
2022-08-25T23:32:14.047Z,99.90
2022-08-25T23:34:43.601Z,99.90
2022-08-25T23:37:15.200Z,99.90
2022-08-25T23:39:45.715Z,99.90
2022-08-25T23:42:13.004Z,99.90
2022-08-25T23:44:40.277Z,99.90
2022-08-25T23:47:07.544Z,99.90
2022-08-25T23:49:39.904Z,99.90
2022-08-25T23:52:07.388Z,99.90
2022-08-25T23:54:34.684Z,99.90
2022-08-25T23:57:02.573Z,99.90
2022-08-25T23:59:29.814Z,99.90
